Time;durP1;ratioP1;P1;durP2;ratioP2;P2;SDS_P1;SDS_P2;PMS_P1;PMS_P2;Temp;Humidity;BMP_temperature;BMP_pressure;BME280_temperature;BME280_humidity;BME280_pressure;Samples;Min_cycle;Max_cycle;Signal;HPM_P1;HPM_P2
2022/05/16 00:02:11;;;;;;;3.90;1.35;;;8.90;99.90;10.30;97536.00;;;;4963627;28;82790;-59
2022/05/16 00:04:42;;;;;;;3.05;1.58;;;8.90;99.90;10.10;97533.00;;;;4983296;28;82443;-59
2022/05/16 00:07:10;;;;;;;2.15;1.60;;;8.90;99.90;10.20;97537.00;;;;4983064;28;81874;-59
2022/05/16 00:09:36;;;;;;;1.58;1.08;;;8.90;99.90;10.40;97539.00;;;;4983110;28;82413;-59
2022/05/16 00:12:04;;;;;;;4.22;1.63;;;8.90;99.90;10.10;97540.00;;;;4988668;28;84723;-59
2022/05/16 00:14:31;;;;;;;4.03;1.50;;;8.90;99.90;10.40;97535.00;;;;5003296;28;83465;-59
2022/05/16 00:16:57;;;;;;;3.25;1.42;;;8.90;99.90;10.20;97547.00;;;;5003453;28;81959;-59
2022/05/16 00:19:23;;;;;;;3.08;1.20;;;8.90;99.90;10.20;97541.00;;;;5003122;28;82146;-58
2022/05/16 00:21:50;;;;;;;2.08;1.40;;;8.90;99.90;10.30;97541.00;;;;5003142;28;82499;-59
2022/05/16 00:24:18;;;;;;;1.90;1.25;;;8.90;99.90;10.30;97536.00;;;;5003140;28;82371;-59
2022/05/16 00:26:44;;;;;;;2.15;1.30;;;8.90;99.90;10.10;97528.00;;;;5003049;28;82454;-59
2022/05/16 00:29:11;;;;;;;2.45;1.20;;;8.90;99.90;10.20;97540.00;;;;5003659;28;82158;-59
2022/05/16 00:31:38;;;;;;;1.95;1.20;;;8.90;99.90;10.20;97538.00;;;;5003199;28;83406;-59
2022/05/16 00:34:04;;;;;;;2.20;1.30;;;8.90;99.90;10.30;97536.00;;;;5003141;28;82191;-59
2022/05/16 00:36:30;;;;;;;1.52;1.30;;;8.80;99.90;10.30;97537.00;;;;4986419;28;82943;-59
2022/05/16 00:38:56;;;;;;;2.00;1.25;;;8.90;99.90;10.40;97532.00;;;;4983572;28;82770;-58
2022/05/16 00:41:22;;;;;;;2.67;1.33;;;8.90;99.90;10.40;97537.00;;;;4983285;28;83993;-59
2022/05/16 00:43:57;;;;;;;2.45;1.30;;;8.90;99.90;10.40;97536.00;;;;4982877;28;83226;-60
2022/05/16 00:46:30;;;;;;;3.38;1.63;;;8.80;99.90;10.40;97533.00;;;;4983242;28;82293;-59
2022/05/16 00:48:57;;;;;;;3.88;1.40;;;8.80;99.90;10.20;97530.00;;;;4999012;28;82414;-58
2022/05/16 00:51:34;;;;;;;2.13;1.33;;;8.80;99.90;10.20;97544.00;;;;4983137;28;82476;-58
2022/05/16 00:54:14;;;;;;;1.90;1.27;;;8.80;99.90;10.20;97538.00;;;;5001667;28;82371;-58
2022/05/16 00:56:42;;;;;;;5.25;1.52;;;8.70;99.90;10.20;97540.00;;;;5018497;28;82251;-59
2022/05/16 00:59:09;;;;;;;3.85;1.45;;;8.60;99.90;10.10;97533.00;;;;4998018;28;82878;-60
2022/05/16 01:07:05;;;;;;;2.80;1.45;;;8.60;99.90;9.90;97537.00;;;;4982573;28;82609;-58
2022/05/16 01:09:32;;;;;;;1.65;1.00;;;8.60;99.90;9.80;97560.00;;;;4982481;28;82128;-61
2022/05/16 01:12:00;;;;;;;2.40;1.20;;;8.50;99.90;9.90;97545.00;;;;4984642;28;82472;-60
2022/05/16 01:15:00;;;;;;;3.30;0.95;;;8.50;99.90;10.00;97536.00;;;;4964430;28;82390;-60
2022/05/16 01:17:26;;;;;;;2.28;1.40;;;8.50;99.90;10.00;97534.00;;;;4959435;28;82234;-59
2022/05/16 01:19:53;;;;;;;1.52;1.00;;;8.50;99.90;9.80;97541.00;;;;4983388;28;82141;-59
2022/05/16 01:22:32;;;;;;;2.50;1.27;;;8.50;99.90;9.80;97549.00;;;;4982889;28;82568;-60
2022/05/16 01:25:18;;;;;;;4.05;1.20;;;8.50;99.90;9.90;97558.00;;;;4982018;28;83623;-58
2022/05/16 01:27:52;;;;;;;2.53;1.30;;;8.40;99.90;10.00;97549.00;;;;4981525;28;83236;-59
2022/05/16 01:30:24;;;;;;;2.65;0.93;;;8.40;99.90;9.80;97556.00;;;;4982295;28;83437;-59
2022/05/16 01:32:50;;;;;;;1.63;1.00;;;8.40;99.90;9.90;97564.00;;;;4982459;28;82800;-59
2022/05/16 01:35:26;;;;;;;1.85;0.90;;;8.50;99.90;9.80;97561.00;;;;4982288;28;82446;-59
2022/05/16 01:40:38;;;;;;;4.68;1.20;;;8.40;99.90;10.00;97563.00;;;;4982397;28;83466;-59
2022/05/16 01:43:05;;;;;;;3.38;1.10;;;8.40;99.90;9.90;97567.00;;;;4982725;28;83156;-59
2022/05/16 01:45:33;;;;;;;2.55;1.27;;;8.40;99.90;9.80;97556.00;;;;4982214;28;83260;-59
2022/05/16 01:47:59;;;;;;;2.30;1.05;;;8.40;99.90;9.90;97575.00;;;;4982714;28;82357;-59
2022/05/16 01:50:25;;;;;;;3.30;1.20;;;8.40;99.90;9.70;97575.00;;;;4982917;28;82272;-60
2022/05/16 01:52:51;;;;;;;1.38;1.00;;;8.30;99.90;9.90;97578.00;;;;4994186;28;83714;-59
2022/05/16 01:55:18;;;;;;;2.97;1.05;;;8.30;99.90;9.90;97572.00;;;;5001807;28;83414;-60
2022/05/16 01:57:44;;;;;;;1.83;1.20;;;8.30;99.90;9.80;97578.00;;;;5002403;28;82292;-59
2022/05/16 02:00:15;;;;;;;2.15;1.05;;;8.30;99.90;9.70;97574.00;;;;4989408;28;82173;-59
2022/05/16 02:02:42;;;;;;;3.03;1.20;;;8.30;99.90;9.70;97574.00;;;;4982444;28;82579;-59
2022/05/16 02:05:13;;;;;;;3.47;1.20;;;8.20;99.90;9.80;97578.00;;;;4982246;28;82311;-59
2022/05/16 02:07:39;;;;;;;3.05;1.42;;;8.20;99.90;9.60;97584.00;;;;4981778;28;82235;-58
2022/05/16 02:10:08;;;;;;;2.30;1.20;;;8.20;99.90;9.60;97576.00;;;;4982669;28;81898;-59
2022/05/16 02:12:35;;;;;;;2.80;1.00;;;8.20;99.90;9.50;97579.00;;;;4992969;28;82728;-59
2022/05/16 02:15:04;;;;;;;2.35;1.23;;;8.10;99.90;9.60;97577.00;;;;5002047;28;83380;-59
2022/05/16 02:17:30;;;;;;;3.25;1.20;;;8.20;99.90;9.50;97587.00;;;;5001198;28;83298;-59
2022/05/16 02:19:57;;;;;;;2.33;1.30;;;8.20;99.90;9.40;97591.00;;;;5001884;28;83558;-58
2022/05/16 02:25:08;;;;;;;3.45;1.30;;;8.10;99.90;9.40;97567.00;;;;5001401;28;83588;-59
2022/05/16 02:27:34;;;;;;;3.03;1.15;;;8.10;99.90;9.30;97587.00;;;;5002168;28;82252;-58
2022/05/16 02:30:01;;;;;;;2.03;1.00;;;8.10;99.90;9.40;97588.00;;;;5005190;28;82483;-58
2022/05/16 02:32:27;;;;;;;4.88;1.38;;;8.10;99.90;9.50;97579.00;;;;5004941;28;82529;-59
2022/05/16 02:34:53;;;;;;;3.72;1.05;;;8.20;99.90;9.60;97583.00;;;;5002903;28;82352;-61
2022/05/16 02:37:20;;;;;;;3.05;1.13;;;8.20;99.90;9.60;97587.00;;;;4984328;28;83094;-58
2022/05/16 02:39:46;;;;;;;2.20;1.20;;;8.20;99.90;9.50;97593.00;;;;4984828;28;83459;-58
2022/05/16 02:42:14;;;;;;;2.22;1.00;;;8.20;99.90;9.70;97597.00;;;;4984758;28;83376;-58
2022/05/16 02:44:44;;;;;;;2.58;1.17;;;8.30;99.90;9.70;97600.00;;;;4984995;28;84175;-58
2022/05/16 02:47:17;;;;;;;1.92;0.93;;;8.30;99.90;9.60;97591.00;;;;4984352;28;82214;-58
2022/05/16 02:49:44;;;;;;;3.58;1.00;;;8.30;99.90;9.50;97602.00;;;;4985142;28;82322;-59
2022/05/16 02:52:10;;;;;;;1.65;1.20;;;8.30;99.90;9.60;97583.00;;;;4991534;28;82517;-58
2022/05/16 02:54:37;;;;;;;4.03;1.10;;;8.30;99.90;9.40;97607.00;;;;5004570;28;84781;-59
2022/05/16 02:57:06;;;;;;;4.10;1.10;;;8.20;99.90;9.60;97587.00;;;;5004567;28;82074;-59
2022/05/16 02:59:34;;;;;;;1.73;1.00;;;8.20;99.90;9.70;97603.00;;;;4997337;28;81845;-59
2022/05/16 03:02:03;;;;;;;2.63;1.00;;;8.30;99.90;9.50;97601.00;;;;4983691;28;82694;-58
2022/05/16 03:04:29;;;;;;;1.20;1.00;;;8.20;99.90;9.60;97605.00;;;;4983383;28;82687;-58
2022/05/16 03:06:56;;;;;;;1.25;0.90;;;8.20;99.90;9.80;97603.00;;;;4979803;28;83257;-58
2022/05/16 03:09:23;;;;;;;1.60;0.90;;;8.30;99.90;9.50;97614.00;;;;4964596;28;82244;-57
2022/05/16 03:11:50;;;;;;;2.58;1.08;;;8.20;99.90;9.70;97604.00;;;;4974412;28;82498;-58
2022/05/16 03:14:16;;;;;;;3.58;0.93;;;8.30;99.90;9.60;97600.00;;;;5004559;28;82251;-62
2022/05/16 03:16:42;;;;;;;2.22;1.15;;;8.30;99.90;9.70;97605.00;;;;5004445;28;82428;-60
2022/05/16 03:19:09;;;;;;;2.05;0.90;;;8.30;99.90;9.70;97603.00;;;;5003853;28;82525;-59
2022/05/16 03:21:35;;;;;;;2.60;1.05;;;8.30;99.90;9.80;97616.00;;;;5004534;28;82475;-57
2022/05/16 03:24:02;;;;;;;2.38;1.08;;;8.40;99.90;9.60;97609.00;;;;5004799;28;83491;-58
2022/05/16 03:26:28;;;;;;;4.78;1.30;;;8.40;99.90;9.80;97622.00;;;;5004483;28;82252;-58
2022/05/16 03:28:54;;;;;;;1.30;0.80;;;8.40;99.90;9.80;97619.00;;;;5003956;28;82375;-57
2022/05/16 03:31:21;;;;;;;2.35;1.20;;;8.50;99.90;9.80;97620.00;;;;5003959;28;83629;-57
2022/05/16 03:33:47;;;;;;;3.75;0.90;;;8.60;99.90;9.80;97616.00;;;;5004206;28;83033;-59
2022/05/16 03:36:14;;;;;;;2.45;0.80;;;8.50;99.90;9.90;97613.00;;;;4990591;28;81903;-57
2022/05/16 03:41:25;;;;;;;3.55;1.13;;;8.70;99.90;10.40;97602.00;;;;4984087;28;83584;-58
2022/05/16 03:43:51;;;;;;;3.17;0.93;;;8.90;99.90;10.60;97612.00;;;;4984185;28;82131;-59
2022/05/16 03:46:17;;;;;;;3.67;0.90;;;9.10;99.90;10.80;97596.00;;;;4984459;28;82265;-59
2022/05/16 03:48:44;;;;;;;1.98;0.82;;;9.40;99.90;11.50;97602.00;;;;4983839;28;83042;-59
2022/05/16 03:51:13;;;;;;;2.78;0.70;;;9.90;99.90;11.60;97612.00;;;;4983422;28;83392;-59
2022/05/16 03:53:46;;;;;;;3.70;1.00;;;10.20;99.90;11.50;97606.00;;;;5002127;28;82787;-59
2022/05/16 03:56:25;;;;;;;2.05;0.70;;;10.30;99.90;11.70;97607.00;;;;5003547;28;83334;-59
2022/05/16 03:58:52;;;;;;;2.55;0.85;;;10.40;99.90;12.10;97608.00;;;;4998864;28;82325;-60
2022/05/16 04:01:20;;;;;;;2.47;1.05;;;10.50;99.90;12.40;97610.00;;;;4985815;28;82502;-60
2022/05/16 04:03:46;;;;;;;1.50;0.80;;;10.80;99.90;12.00;97621.00;;;;4983367;28;83931;-58
2022/05/16 04:06:15;;;;;;;5.72;1.10;;;10.60;99.90;12.10;97607.00;;;;4983713;28;81925;-59
2022/05/16 04:08:42;;;;;;;2.88;1.05;;;10.60;99.90;11.70;97619.00;;;;4983272;28;83768;-59
2022/05/16 04:11:11;;;;;;;1.92;0.90;;;10.60;99.90;12.00;97613.00;;;;4980551;28;88232;-59
2022/05/16 04:13:37;;;;;;;2.80;0.98;;;10.60;99.90;12.50;97620.00;;;;4999493;28;86232;-61
2022/05/16 04:16:04;;;;;;;2.75;1.10;;;11.00;99.90;12.60;97619.00;;;;5000719;28;87243;-60
2022/05/16 04:18:32;;;;;;;3.28;0.70;;;11.10;99.90;12.70;97632.00;;;;4983142;28;87618;-62
2022/05/16 04:20:58;;;;;;;4.25;0.80;;;11.10;99.90;13.30;97618.00;;;;4999946;28;88623;-60
2022/05/16 04:23:24;;;;;;;1.05;0.73;;;11.60;99.90;13.20;97618.00;;;;5000400;28;89723;-60
2022/05/16 04:25:50;;;;;;;6.53;1.00;;;11.60;99.90;12.70;97622.00;;;;5000585;28;87553;-59
2022/05/16 04:28:17;;;;;;;2.30;0.80;;;11.40;99.90;12.30;97622.00;;;;5000674;28;87142;-60
2022/05/16 04:30:43;;;;;;;2.70;0.75;;;11.10;99.90;12.80;97610.00;;;;4998726;28;88265;-59
2022/05/16 04:33:09;;;;;;;2.97;1.02;;;11.30;99.90;13.00;97619.00;;;;5000433;28;87273;-59
2022/05/16 04:35:36;;;;;;;5.70;0.85;;;11.50;99.90;13.20;97628.00;;;;4992222;28;86976;-58
2022/05/16 04:38:05;;;;;;;4.80;0.60;;;11.60;99.90;12.90;97608.00;;;;4979513;28;86608;-58
2022/05/16 04:40:32;;;;;;;1.58;0.80;;;11.50;99.90;13.40;97606.00;;;;4980204;28;88165;-59
2022/05/16 04:42:59;;;;;;;1.70;0.90;;;11.80;99.90;13.40;97618.00;;;;4980775;28;87573;-60
2022/05/16 04:45:29;;;;;;;1.63;0.63;;;11.90;99.90;13.30;97619.00;;;;4980211;28;87924;-60
2022/05/16 04:48:01;;;;;;;2.22;0.82;;;11.80;99.90;13.40;97619.00;;;;4980720;28;87092;-59
2022/05/16 04:50:34;;;;;;;2.30;0.75;;;11.70;99.90;13.90;97591.00;;;;4980535;28;87271;-59
2022/05/16 04:53:01;;;;;;;2.60;0.73;;;12.20;99.90;13.50;97623.00;;;;4992840;28;88615;-60
2022/05/16 04:55:29;;;;;;;0.52;0.47;;;12.00;99.90;13.10;97613.00;;;;4999674;28;86889;-60
2022/05/16 04:57:57;;;;;;;2.88;0.70;;;11.70;99.90;13.60;97597.00;;;;5000404;28;87164;-60
2022/05/16 05:00:25;;;;;;;2.50;0.85;;;11.90;99.90;13.80;97609.00;;;;4984592;28;88054;-60
2022/05/16 05:02:51;;;;;;;2.13;0.80;;;12.10;99.90;13.40;97611.00;;;;4979911;28;87634;-59
2022/05/16 05:05:18;;;;;;;8.10;0.90;;;12.00;99.90;14.60;97600.00;;;;4979982;28;87345;-57
2022/05/16 05:07:45;;;;;;;2.05;0.70;;;12.90;99.90;14.10;97623.00;;;;4979682;28;86893;-59
2022/05/16 05:15:47;;;;;;;3.80;0.60;;;12.90;99.90;14.10;97610.00;;;;4998648;28;86894;-59
2022/05/16 05:18:13;;;;;;;2.45;0.70;;;12.40;99.90;14.60;97614.00;;;;4999380;28;86930;-60
2022/05/16 05:20:39;;;;;;;2.72;0.73;;;12.80;99.90;14.60;97600.00;;;;4999055;28;87643;-62
2022/05/16 05:23:06;;;;;;;3.17;0.80;;;12.70;99.90;14.60;97609.00;;;;4998950;28;87587;-60
2022/05/16 05:25:32;;;;;;;1.60;0.80;;;12.80;99.90;14.70;97602.00;;;;4999392;28;87602;-60
2022/05/16 05:28:03;;;;;;;1.05;0.70;;;12.90;99.90;13.80;97628.00;;;;4999872;28;86598;-59
2022/05/16 05:30:30;;;;;;;2.05;0.68;;;12.60;99.90;14.80;97605.00;;;;4999016;28;87564;-60
2022/05/16 05:32:57;;;;;;;4.30;0.60;;;13.20;99.90;14.70;97618.00;;;;4997541;28;88652;-59
2022/05/16 05:35:24;;;;;;;3.08;0.73;;;13.20;99.90;15.40;97605.00;;;;4992007;28;88211;-59
2022/05/16 05:37:51;;;;;;;3.95;0.90;;;13.60;99.90;15.30;97616.00;;;;4978842;28;87361;-58
2022/05/16 05:40:17;;;;;;;3.38;0.77;;;13.50;99.90;15.30;97623.00;;;;4977831;28;87389;-59
2022/05/16 05:42:43;;;;;;;4.43;0.90;;;13.30;99.90;14.30;97612.00;;;;4977713;28;88733;-60
2022/05/16 05:45:10;;;;;;;3.45;0.70;;;12.80;99.90;14.10;97627.00;;;;4979435;28;87532;-59
2022/05/16 05:47:37;;;;;;;2.35;0.75;;;12.50;99.90;13.90;97619.00;;;;4979080;28;87352;-59
2022/05/16 05:50:07;;;;;;;4.78;0.93;;;12.10;99.90;13.20;97621.00;;;;4977596;28;87828;-60
2022/05/16 05:52:33;;;;;;;2.50;0.88;;;11.80;99.90;13.20;97618.00;;;;4988645;28;87383;-59
2022/05/16 05:55:00;;;;;;;1.42;0.50;;;11.70;99.90;13.20;97620.00;;;;4997752;28;87544;-59
2022/05/16 05:57:26;;;;;;;1.95;0.70;;;11.60;99.90;13.30;97628.00;;;;4999335;28;87046;-60
2022/05/16 05:59:55;;;;;;;4.78;1.08;;;11.80;99.90;13.50;97623.00;;;;4987527;28;88741;-59
2022/05/16 06:02:21;;;;;;;2.47;0.68;;;12.10;99.90;13.50;97610.00;;;;4978333;28;88249;-60
2022/05/16 06:04:48;;;;;;;2.80;0.93;;;12.00;99.90;14.10;97610.00;;;;4978753;28;87242;-59
2022/05/16 06:07:15;;;;;;;4.15;0.60;;;12.50;99.90;14.60;97613.00;;;;4979039;28;86981;-60
2022/05/16 06:09:42;;;;;;;2.63;0.60;;;12.80;99.90;14.10;97624.00;;;;4978920;28;87554;-59
2022/05/16 06:12:09;;;;;;;3.25;0.70;;;12.60;99.90;13.20;97632.00;;;;4985546;28;87568;-60
2022/05/16 06:14:36;;;;;;;3.08;0.80;;;12.00;99.90;13.40;97628.00;;;;4986947;28;87442;-60
2022/05/16 06:17:03;;;;;;;2.80;0.82;;;11.90;99.90;13.20;97627.00;;;;4974806;28;86616;-60
2022/05/16 06:19:29;;;;;;;3.58;0.77;;;11.70;99.90;13.10;97631.00;;;;4958643;28;87337;-63
2022/05/16 06:21:55;;;;;;;2.05;0.60;;;11.60;99.90;13.20;97622.00;;;;4984084;28;89381;-62
2022/05/16 06:27:08;;;;;;;1.00;0.45;;;11.80;99.90;13.30;97638.00;;;;4981371;28;87539;-58
2022/05/16 06:29:34;;;;;;;2.22;0.80;;;11.70;99.90;12.90;97631.00;;;;4981117;28;88520;-58
2022/05/16 06:32:00;;;;;;;6.68;1.05;;;11.40;99.90;13.30;97625.00;;;;4979861;28;87254;-60
2022/05/16 06:34:26;;;;;;;5.88;0.82;;;11.80;99.90;13.40;97630.00;;;;4980890;28;87325;-58
2022/05/16 06:36:52;;;;;;;3.90;0.68;;;11.80;99.90;13.60;97632.00;;;;4981312;28;87185;-60
2022/05/16 06:39:18;;;;;;;1.55;0.63;;;11.90;99.90;13.40;97613.00;;;;4981009;28;88592;-60
2022/05/16 06:41:45;;;;;;;5.03;0.70;;;11.90;99.90;13.50;97628.00;;;;4981483;28;87540;-60
2022/05/16 06:44:14;;;;;;;4.70;1.10;;;11.90;99.90;13.10;97624.00;;;;4981337;28;87218;-61
2022/05/16 06:46:44;;;;;;;1.17;0.50;;;11.70;99.90;13.20;97617.00;;;;4980368;28;86972;-59
2022/05/16 06:49:11;;;;;;;2.38;0.70;;;11.70;99.90;12.60;97628.00;;;;4980155;28;90079;-60
2022/05/16 06:51:38;;;;;;;3.42;0.80;;;11.50;99.90;12.80;97628.00;;;;4979740;28;88398;-59
2022/05/16 06:54:05;;;;;;;2.17;0.68;;;11.50;99.90;12.70;97626.00;;;;4980270;28;87006;-58
2022/05/16 06:56:32;;;;;;;3.60;0.63;;;11.50;99.90;13.30;97630.00;;;;4980430;28;87260;-59
2022/05/16 06:58:59;;;;;;;6.18;0.88;;;11.90;99.90;12.80;97635.00;;;;4981830;28;88023;-59
2022/05/16 07:01:25;;;;;;;4.97;0.55;;;11.70;99.90;13.10;97629.00;;;;4980021;28;87374;-59
2022/05/16 07:03:51;;;;;;;4.10;0.70;;;11.80;99.90;12.50;97651.00;;;;4980470;28;87118;-60
2022/05/16 07:06:17;;;;;;;4.70;0.90;;;11.50;99.90;13.10;97630.00;;;;4980763;28;86298;-61
2022/05/16 07:08:44;;;;;;;3.40;0.73;;;11.70;99.90;13.30;97625.00;;;;4979152;28;89332;-60
2022/05/16 07:11:10;;;;;;;2.38;0.52;;;11.80;99.90;13.30;97630.00;;;;4978868;28;87397;-61
2022/05/16 07:13:37;;;;;;;5.45;1.85;;;11.90;99.90;13.80;97630.00;;;;4984598;28;88004;-60
2022/05/16 07:16:04;;;;;;;1.13;0.70;;;12.30;99.90;13.30;97632.00;;;;4981827;28;87077;-59
2022/05/16 07:18:30;;;;;;;3.75;0.93;;;12.00;99.90;13.40;97642.00;;;;4983752;28;87801;-60
2022/05/16 07:20:58;;;;;;;4.00;0.68;;;12.10;99.90;13.20;97649.00;;;;4983384;28;87283;-60
2022/05/16 07:23:26;;;;;;;1.50;0.70;;;11.90;99.90;13.40;97627.00;;;;4982153;28;87047;-60
2022/05/16 07:28:38;;;;;;;3.83;1.13;;;11.90;99.90;13.20;97633.00;;;;4982816;28;88088;-60
2022/05/16 07:31:05;;;;;;;4.07;1.08;;;11.80;99.90;12.60;97631.00;;;;4983095;28;86746;-60
2022/05/16 07:33:32;;;;;;;2.70;0.60;;;11.40;99.90;12.90;97622.00;;;;4984008;28;87362;-59
2022/05/16 07:35:58;;;;;;;2.15;0.77;;;11.50;99.90;12.60;97641.00;;;;4982130;28;87018;-60
2022/05/16 07:38:25;;;;;;;2.53;0.70;;;11.50;99.90;13.30;97632.00;;;;4982644;28;88540;-61
2022/05/16 07:40:53;;;;;;;2.65;0.70;;;11.90;99.90;13.70;97620.00;;;;4982576;28;87561;-61
2022/05/16 07:43:20;;;;;;;1.10;0.60;;;12.20;99.90;14.00;97627.00;;;;4982759;28;87051;-60
2022/05/16 07:45:47;;;;;;;2.33;0.80;;;12.40;99.90;14.20;97625.00;;;;4978769;28;87016;-61
2022/05/16 07:48:13;;;;;;;3.88;0.80;;;12.60;99.90;14.00;97633.00;;;;4982694;28;88146;-60
2022/05/16 07:50:40;;;;;;;4.25;0.90;;;12.40;99.90;14.00;97632.00;;;;4982768;28;88756;-59
2022/05/16 07:53:12;;;;;;;4.05;0.98;;;12.40;99.90;13.90;97626.00;;;;4983229;28;87798;-60
2022/05/16 07:55:42;;;;;;;7.00;0.70;;;12.30;99.90;14.00;97630.00;;;;4981508;28;86307;-62
2022/05/16 07:58:09;;;;;;;2.38;0.63;;;12.60;99.90;13.90;97618.00;;;;4981454;28;87674;-57
2022/05/16 08:00:35;;;;;;;1.73;0.80;;;12.60;99.90;14.00;97608.00;;;;4997690;28;88922;-60
2022/05/16 08:03:02;;;;;;;2.60;0.70;;;12.70;99.90;13.90;97622.00;;;;4981881;28;87963;-59
2022/05/16 08:05:28;;;;;;;4.00;0.88;;;12.70;99.90;14.10;97632.00;;;;4982834;28;87115;-59
2022/05/16 08:10:41;;;;;;;6.30;0.90;;;12.80;99.90;14.50;97626.00;;;;4980421;28;88089;-60
2022/05/16 08:13:10;;;;;;;3.80;0.93;;;13.10;99.90;14.60;97623.00;;;;4985088;28;86941;-60
2022/05/16 08:15:39;;;;;;;3.67;0.90;;;13.20;99.90;14.40;97623.00;;;;4980665;28;87418;-59
2022/05/16 08:18:06;;;;;;;5.25;0.88;;;13.10;99.90;14.80;97622.00;;;;4994937;28;88744;-60
2022/05/16 08:20:35;;;;;;;1.92;0.80;;;13.40;99.90;14.70;97615.00;;;;4982832;28;87311;-59
2022/05/16 08:23:01;;;;;;;4.18;0.80;;;13.50;99.90;15.10;97614.00;;;;4982097;28;87362;-64
2022/05/16 08:25:27;;;;;;;1.83;0.40;;;13.60;99.90;15.10;97618.00;;;;4973476;28;87376;-61
2022/05/16 08:27:53;;;;;;;3.05;0.88;;;13.50;99.90;14.90;97615.00;;;;4979933;28;88704;-60
2022/05/16 08:30:22;;;;;;;2.28;0.80;;;13.30;99.90;14.40;97625.00;;;;4980603;28;89417;-60
2022/05/16 08:32:49;;;;;;;2.92;0.93;;;12.80;99.90;14.30;97622.00;;;;4981262;28;86883;-60
2022/05/16 08:35:18;;;;;;;4.20;1.02;;;12.80;99.90;14.00;97625.00;;;;4981616;28;87312;-60
2022/05/16 08:40:56;;;;;;;2.65;0.70;;;12.00;99.90;13.90;97620.00;;;;4981578;28;87020;-60
2022/05/16 08:44:01;;;;;;;1.75;0.80;;;12.40;99.90;14.20;97622.00;;;;4980240;28;87638;-58
2022/05/16 08:46:46;;;;;;;1.63;0.77;;;12.60;99.90;13.60;97628.00;;;;4964027;28;87419;-59
2022/05/16 08:49:33;;;;;;;1.70;0.68;;;12.30;99.90;13.70;97633.00;;;;4980200;28;87496;-60
2022/05/16 08:52:22;;;;;;;2.95;0.63;;;12.40;99.90;13.70;97628.00;;;;4986772;28;87247;-60
2022/05/16 08:55:13;;;;;;;2.83;0.80;;;12.30;99.90;13.30;97635.00;;;;5002266;28;88163;-60
2022/05/16 08:58:01;;;;;;;3.17;0.70;;;12.10;99.90;13.70;97625.00;;;;4976952;28;87441;-59
2022/05/16 09:00:49;;;;;;;2.78;0.90;;;12.20;99.90;13.40;97631.00;;;;4979083;28;88606;-59
2022/05/16 09:03:41;;;;;;;3.03;1.08;;;12.10;99.90;13.30;97626.00;;;;4997389;28;87165;-59
2022/05/16 09:06:16;;;;;;;3.38;0.80;;;12.10;99.90;13.30;97625.00;;;;4979719;28;87215;-59
2022/05/16 09:09:11;;;;;;;3.13;0.60;;;12.00;99.90;13.50;97626.00;;;;4964410;28;86984;-60
2022/05/16 09:12:02;;;;;;;3.92;0.82;;;12.20;99.90;13.50;97627.00;;;;4981684;28;86860;-61
2022/05/16 09:14:53;;;;;;;1.97;0.60;;;12.10;99.90;13.40;97634.00;;;;4981034;28;87068;-60
2022/05/16 09:17:51;;;;;;;3.38;0.70;;;12.20;99.90;13.40;97640.00;;;;4980026;28;87186;-60
2022/05/16 09:20:51;;;;;;;1.92;0.70;;;12.20;99.90;13.60;97627.00;;;;4973986;28;87140;-59
2022/05/16 09:24:00;;;;;;;4.55;1.63;;;12.40;99.90;13.80;97617.00;;;;4985731;28;89841;-60
2022/05/16 09:26:58;;;;;;;1.98;0.63;;;12.30;99.90;14.20;97612.00;;;;4981561;28;88012;-60
2022/05/16 09:29:31;;;;;;;2.17;0.70;;;12.70;99.90;14.00;97608.00;;;;4978019;28;87425;-59
2022/05/16 09:32:21;;;;;;;0.63;0.60;;;12.60;99.90;14.20;97608.00;;;;4981559;28;86989;-59
2022/05/16 09:34:47;;;;;;;0.52;0.50;;;12.70;99.90;14.20;97605.00;;;;4979496;28;89116;-59
2022/05/16 09:37:13;;;;;;;1.42;0.68;;;12.90;99.90;13.80;97613.00;;;;4979638;28;88352;-60
2022/05/16 09:39:40;;;;;;;3.10;0.70;;;12.60;99.90;14.10;97599.00;;;;4980802;28;87085;-59
2022/05/16 09:42:15;;;;;;;2.00;0.70;;;12.70;99.90;14.40;97601.00;;;;4981950;28;86630;-60
2022/05/16 09:45:13;;;;;;;4.30;0.90;;;12.90;99.90;14.80;97607.00;;;;4977159;28;88786;-60
2022/05/16 09:47:42;;;;;;;7.70;0.75;;;13.30;99.90;14.80;97626.00;;;;4962219;28;88323;-61
2022/05/16 09:50:20;;;;;;;2.78;0.68;;;13.30;99.90;13.90;97641.00;;;;4976093;28;87836;-60
2022/05/16 09:53:07;;;;;;;4.05;1.13;;;12.90;99.90;14.40;97616.00;;;;4981470;28;86745;-61
2022/05/16 09:55:58;;;;;;;3.95;0.93;;;13.00;99.90;14.80;97614.00;;;;4980646;28;87553;-60
2022/05/16 09:58:36;;;;;;;6.70;0.90;;;13.40;99.90;14.70;97621.00;;;;4982732;28;86961;-61
2022/05/16 10:01:08;;;;;;;7.32;0.80;;;13.50;99.90;14.90;97621.00;;;;4985170;28;87198;-60
2022/05/16 10:03:47;;;;;;;;;;;13.50;99.90;15.20;97610.00;;;;4980243;28;87061;-60
2022/05/16 10:07:01;;;;;;;2.65;0.85;;;13.80;99.90;15.40;97609.00;;;;4979788;28;87680;-59
2022/05/16 10:09:36;;;;;;;3.20;1.05;;;13.90;99.90;14.90;97634.00;;;;4977343;28;87343;-60
2022/05/16 10:12:07;;;;;;;1.83;0.80;;;13.70;99.90;14.30;97634.00;;;;4973872;28;87406;-59
2022/05/16 10:14:36;;;;;;;1.40;0.60;;;13.20;99.90;14.00;97640.00;;;;4979163;28;88194;-59
2022/05/16 10:17:04;;;;;;;0.50;0.47;;;12.90;99.90;14.00;97633.00;;;;4978785;28;89929;-60
2022/05/16 10:19:32;;;;;;;2.03;0.80;;;12.80;99.90;13.60;97660.00;;;;4980603;28;88379;-60
2022/05/16 10:22:05;;;;;;;4.35;0.70;;;12.60;99.90;13.20;97670.00;;;;4980662;28;86877;-60
2022/05/16 10:24:42;;;;;;;5.38;0.68;;;12.40;99.90;13.20;97652.00;;;;4977182;28;87561;-59
2022/05/16 10:27:12;;;;;;;4.45;0.50;;;12.10;99.90;13.20;97653.00;;;;4978606;28;87857;-59
2022/05/16 10:29:46;;;;;;;0.60;0.30;;;11.90;99.90;13.10;97674.00;;;;4978745;28;86994;-59
2022/05/16 10:35:37;;;;;;;3.88;0.60;;;11.50;99.90;12.60;97664.00;;;;4979952;28;86225;-59
2022/05/16 10:38:33;;;;;;;2.50;0.70;;;11.50;99.90;12.70;97663.00;;;;4979330;28;87736;-59
2022/05/16 10:41:07;;;;;;;2.45;0.50;;;11.40;99.90;12.70;97651.00;;;;4979999;28;88473;-59
2022/05/16 10:43:49;;;;;;;6.63;0.70;;;11.20;99.90;12.50;97652.00;;;;4972538;28;87874;-61
2022/05/16 10:46:25;;;;;;;2.28;0.50;;;11.00;99.90;12.40;97642.00;;;;4978903;28;87148;-61
2022/05/16 10:48:59;;;;;;;0.45;0.40;;;11.10;99.90;12.40;97637.00;;;;4979334;28;87976;-61
2022/05/16 10:51:48;;;;;;;1.52;0.60;;;11.30;99.90;12.80;97634.00;;;;4982510;28;87350;-61
2022/05/16 10:54:21;;;;;;;2.22;0.55;;;11.50;99.90;13.20;97643.00;;;;4983036;28;87425;-62
2022/05/16 10:57:14;;;;;;;3.35;0.75;;;11.90;99.90;13.10;97666.00;;;;4998253;28;87332;-61
2022/05/16 10:59:59;;;;;;;2.28;0.80;;;12.00;99.90;13.10;97664.00;;;;4980151;28;88748;-59
2022/05/16 11:02:34;;;;;;;1.50;0.70;;;11.90;99.90;12.50;97712.00;;;;4981057;28;88388;-58
2022/05/16 11:05:18;;;;;;;2.58;0.52;;;11.60;99.90;12.30;97677.00;;;;4983771;28;86899;-59
2022/05/16 11:08:22;;;;;;;3.17;0.60;;;11.10;99.90;11.50;97674.00;;;;4982171;28;88195;-61
2022/05/16 11:11:03;;;;;;;1.67;0.60;;;10.40;99.90;11.20;97767.00;;;;4978617;28;88534;-60
2022/05/16 11:13:56;;;;;;;2.83;0.50;;;10.30;99.90;11.50;97661.00;;;;4988861;28;88207;-61
2022/05/16 11:16:33;;;;;;;1.60;0.70;;;10.30;99.90;11.90;97651.00;;;;4983458;28;87026;-60
2022/05/16 11:19:30;;;;;;;1.40;0.75;;;10.70;99.90;12.30;97639.00;;;;4981851;28;87543;-60
2022/05/16 11:22:08;;;;;;;0.75;0.50;;;11.00;99.90;12.50;97634.00;;;;4982610;28;88640;-60
2022/05/16 11:25:16;;;;;;;1.20;0.68;;;11.40;99.90;13.10;97628.00;;;;4982336;28;87435;-60
2022/05/16 11:28:16;;;;;;;1.65;0.70;;;11.70;99.90;13.40;97623.00;;;;4982469;28;87092;-62
2022/05/16 11:31:05;;;;;;;1.67;0.60;;;12.10;99.90;13.60;97611.00;;;;4966572;28;86193;-61
2022/05/16 11:33:54;;;;;;;3.47;0.82;;;12.20;99.90;13.50;97634.00;;;;4982408;28;88505;-58
2022/05/16 11:36:52;;;;;;;1.55;0.60;;;12.30;99.90;13.70;97615.00;;;;4978826;28;87677;-59
2022/05/16 11:39:42;;;;;;;1.17;0.60;;;12.30;99.90;13.70;97615.00;;;;4995979;28;87824;-59
2022/05/16 11:43:00;;;;;;;2.25;0.70;;;12.20;99.90;13.30;97617.00;;;;4980449;28;87104;-58
2022/05/16 11:46:17;;;;;;;2.92;0.60;;;12.00;99.90;13.40;97625.00;;;;4972208;28;87523;-59
2022/05/16 11:49:17;;;;;;;1.75;0.70;;;12.10;99.90;13.40;97622.00;;;;4981233;28;87952;-57
2022/05/16 11:52:21;;;;;;;5.10;0.70;;;12.10;99.90;13.40;97627.00;;;;4982696;28;86943;-58
2022/05/16 11:55:02;;;;;;;3.63;0.77;;;12.00;99.90;13.10;97638.00;;;;4982783;28;86918;-60
2022/05/16 12:03:16;;;;;;;1.85;0.55;;;11.30;99.90;12.50;97632.00;;;;4982877;28;87051;-58